This is the latest recevied weather packets stored in our database for station/object F4GSP-4. If no packets are shown the sender has not sent any weather packets the latest 10 day(s).
| Time | Temp. | Humidity | Pressure | Rain* | Wind** | Luminosity | Snow |
|---|---|---|---|---|---|---|---|
| 1778086393 | 8.33° C | 56% | 1021.2 hPa | - | - | - | - |
| 1778085493 | 8.89° C | 55% | 1021.1 hPa | - | - | - | - |
| 1778084593 | 10° C | 55% | 1020.7 hPa | - | - | - | - |
| 1778083693 | 11.11° C | 55% | 1020.5 hPa | - | - | - | - |
| 1778082793 | 11.67° C | 55% | 1020.3 hPa | - | - | - | - |
| 1778081892 | 12.22° C | 55% | 1020.2 hPa | - | - | - | - |
| 1778080992 | 15° C | 54% | 1020.2 hPa | - | - | - | - |
| 1778080092 | 16.67° C | 56% | 1020.3 hPa | - | - | - | - |
| 1778079192 | 15.56° C | 59% | 1020.4 hPa | - | - | - | - |
| 1778078292 | 14.44° C | 56% | 1020.4 hPa | - | - | - | - |
| 1778077392 | 15.56° C | 56% | 1020.4 hPa | - | - | - | - |
| 1778076491 | 18.33° C | 57% | 1020.6 hPa | - | - | - | - |
| 1778075591 | 16.11° C | 58% | 1020.8 hPa | - | - | - | - |
| 1778074691 | 17.78° C | 57% | 1020.7 hPa | - | - | - | - |
| 1778073791 | 18.33° C | 60% | 1021 hPa | - | - | - | - |
| 1778072891 | 13.89° C | 59% | 1021.2 hPa | - | - | - | - |
| 1778071991 | 9.44° C | 58% | 1021.4 hPa | - | - | - | - |
| 1778071090 | 9.44° C | 55% | 1021.4 hPa | - | - | - | - |
| 1778070190 | 12.78° C | 56% | 1020.9 hPa | - | - | - | - |
| 1778069290 | 14.44° C | 57% | 1020.7 hPa | - | - | - | - |
| 1778068390 | 14.44° C | 58% | 1020.6 hPa | - | - | - | - |
| 1778067490 | 12.78° C | 58% | 1020.7 hPa | - | - | - | - |
| 1778066589 | 12.22° C | 57% | 1020.8 hPa | - | - | - | - |
| 1778065689 | 12.78° C | 58% | 1020.4 hPa | - | - | - | - |
| 1778064789 | 13.33° C | 59% | 1020.3 hPa | - | - | - | - |
* Rain since midnight (hover to see other rain measurements)
** Current wind speed in m/s (hover to see current wind gust speed)